sensor_id;sensor_type;location;lat;lon;timestamp;temperature;humidity
3684;DHT22;1858;48.716;9.648;2023-07-31T00:02:08;14.90;99.90
3684;DHT22;1858;48.716;9.648;2023-07-31T00:04:36;14.90;99.90
3684;DHT22;1858;48.716;9.648;2023-07-31T00:07:03;14.90;1.00
3684;DHT22;1858;48.716;9.648;2023-07-31T00:09:33;14.80;99.90
3684;DHT22;1858;48.716;9.648;2023-07-31T00:12:00;14.80;1.00
3684;DHT22;1858;48.716;9.648;2023-07-31T00:14:28;14.80;1.00
3684;DHT22;1858;48.716;9.648;2023-07-31T00:16:56;14.80;99.90
3684;DHT22;1858;48.716;9.648;2023-07-31T00:19:23;14.80;1.00
3684;DHT22;1858;48.716;9.648;2023-07-31T00:21:51;14.70;1.00
3684;DHT22;1858;48.716;9.648;2023-07-31T00:24:18;14.80;1.00
3684;DHT22;1858;48.716;9.648;2023-07-31T00:26:46;14.70;1.00
3684;DHT22;1858;48.716;9.648;2023-07-31T00:29:14;14.70;1.00
3684;DHT22;1858;48.716;9.648;2023-07-31T00:31:41;14.70;1.00
3684;DHT22;1858;48.716;9.648;2023-07-31T00:34:09;14.60;1.00
3684;DHT22;1858;48.716;9.648;2023-07-31T00:36:37;14.60;1.00
3684;DHT22;1858;48.716;9.648;2023-07-31T00:39:04;14.50;1.00
3684;DHT22;1858;48.716;9.648;2023-07-31T00:41:32;14.50;1.00
3684;DHT22;1858;48.716;9.648;2023-07-31T00:43:59;14.40;1.00
3684;DHT22;1858;48.716;9.648;2023-07-31T00:46:27;14.40;1.00
3684;DHT22;1858;48.716;9.648;2023-07-31T00:48:55;14.40;1.00
3684;DHT22;1858;48.716;9.648;2023-07-31T00:51:23;14.30;1.00
3684;DHT22;1858;48.716;9.648;2023-07-31T00:53:50;14.30;1.00
3684;DHT22;1858;48.716;9.648;2023-07-31T00:56:20;14.30;1.00
3684;DHT22;1858;48.716;9.648;2023-07-31T00:58:47;14.20;1.00
3684;DHT22;1858;48.716;9.648;2023-07-31T01:04:02;14.10;1.00
3684;DHT22;1858;48.716;9.648;2023-07-31T01:06:31;14.00;1.00
3684;DHT22;1858;48.716;9.648;2023-07-31T01:09:11;14.00;1.00
3684;DHT22;1858;48.716;9.648;2023-07-31T01:11:43;14.00;1.00
3684;DHT22;1858;48.716;9.648;2023-07-31T01:14:28;14.00;1.00
3684;DHT22;1858;48.716;9.648;2023-07-31T01:16:56;14.00;1.00
3684;DHT22;1858;48.716;9.648;2023-07-31T01:19:24;14.00;1.00
3684;DHT22;1858;48.716;9.648;2023-07-31T01:24:23;14.00;1.00
3684;DHT22;1858;48.716;9.648;2023-07-31T01:26:53;14.00;1.00
3684;DHT22;1858;48.716;9.648;2023-07-31T01:29:28;13.90;1.00
3684;DHT22;1858;48.716;9.648;2023-07-31T01:31:50;13.90;1.00
3684;DHT22;1858;48.716;9.648;2023-07-31T01:34:19;13.90;1.00
3684;DHT22;1858;48.716;9.648;2023-07-31T01:36:48;13.90;1.00
3684;DHT22;1858;48.716;9.648;2023-07-31T01:39:15;13.80;1.00
3684;DHT22;1858;48.716;9.648;2023-07-31T01:41:43;13.80;16.60
3684;DHT22;1858;48.716;9.648;2023-07-31T01:44:10;13.90;89.10
3684;DHT22;1858;48.716;9.648;2023-07-31T01:46:38;13.90;99.90
3684;DHT22;1858;48.716;9.648;2023-07-31T01:49:06;13.80;99.90
3684;DHT22;1858;48.716;9.648;2023-07-31T01:51:33;13.80;85.40
3684;DHT22;1858;48.716;9.648;2023-07-31T01:54:01;13.80;55.80
3684;DHT22;1858;48.716;9.648;2023-07-31T01:56:29;13.80;14.30
3684;DHT22;1858;48.716;9.648;2023-07-31T01:58:56;13.80;1.00
3684;DHT22;1858;48.716;9.648;2023-07-31T02:01:24;13.80;17.20
3684;DHT22;1858;48.716;9.648;2023-07-31T02:03:51;13.70;7.00
3684;DHT22;1858;48.716;9.648;2023-07-31T02:06:19;13.70;1.00
3684;DHT22;1858;48.716;9.648;2023-07-31T02:08:47;13.70;16.60
3684;DHT22;1858;48.716;9.648;2023-07-31T02:11:14;13.60;20.10
3684;DHT22;1858;48.716;9.648;2023-07-31T02:13:42;13.60;97.60
3684;DHT22;1858;48.716;9.648;2023-07-31T02:16:09;13.60;99.90
3684;DHT22;1858;48.716;9.648;2023-07-31T02:18:37;13.60;80.40
3684;DHT22;1858;48.716;9.648;2023-07-31T02:21:05;13.50;99.90
3684;DHT22;1858;48.716;9.648;2023-07-31T02:23:32;13.40;39.60
3684;DHT22;1858;48.716;9.648;2023-07-31T02:26:00;13.40;99.90
3684;DHT22;1858;48.716;9.648;2023-07-31T02:28:28;13.40;99.90
3684;DHT22;1858;48.716;9.648;2023-07-31T02:30:55;13.40;99.90
3684;DHT22;1858;48.716;9.648;2023-07-31T02:33:23;13.40;99.90
3684;DHT22;1858;48.716;9.648;2023-07-31T02:35:51;13.30;99.90
3684;DHT22;1858;48.716;9.648;2023-07-31T02:38:18;13.30;99.90
3684;DHT22;1858;48.716;9.648;2023-07-31T02:40:46;13.30;99.90
3684;DHT22;1858;48.716;9.648;2023-07-31T02:43:14;13.20;99.90
3684;DHT22;1858;48.716;9.648;2023-07-31T02:45:42;13.20;99.90
3684;DHT22;1858;48.716;9.648;2023-07-31T02:48:10;13.20;99.90
3684;DHT22;1858;48.716;9.648;2023-07-31T02:50:37;13.10;99.90
3684;DHT22;1858;48.716;9.648;2023-07-31T02:53:05;13.10;99.90
3684;DHT22;1858;48.716;9.648;2023-07-31T02:55:32;13.20;99.90
3684;DHT22;1858;48.716;9.648;2023-07-31T02:58:00;13.10;99.90
3684;DHT22;1858;48.716;9.648;2023-07-31T03:00:28;13.10;99.90
3684;DHT22;1858;48.716;9.648;2023-07-31T03:02:55;13.10;99.90
3684;DHT22;1858;48.716;9.648;2023-07-31T03:05:23;13.10;99.90
3684;DHT22;1858;48.716;9.648;2023-07-31T03:07:50;13.00;99.90
3684;DHT22;1858;48.716;9.648;2023-07-31T03:10:18;13.00;99.90
3684;DHT22;1858;48.716;9.648;2023-07-31T03:12:49;13.00;99.90
3684;DHT22;1858;48.716;9.648;2023-07-31T03:15:16;13.00;99.90
3684;DHT22;1858;48.716;9.648;2023-07-31T03:17:44;12.90;99.90
3684;DHT22;1858;48.716;9.648;2023-07-31T03:20:11;12.80;99.90
3684;DHT22;1858;48.716;9.648;2023-07-31T03:22:39;12.80;99.90
3684;DHT22;1858;48.716;9.648;2023-07-31T03:25:07;12.90;99.90
3684;DHT22;1858;48.716;9.648;2023-07-31T03:27:55;12.80;99.90
3684;DHT22;1858;48.716;9.648;2023-07-31T03:30:23;12.80;99.90
3684;DHT22;1858;48.716;9.648;2023-07-31T03:32:50;12.80;99.90
3684;DHT22;1858;48.716;9.648;2023-07-31T03:35:18;12.80;99.90
3684;DHT22;1858;48.716;9.648;2023-07-31T03:37:45;12.80;99.90
3684;DHT22;1858;48.716;9.648;2023-07-31T03:40:13;12.80;99.90
3684;DHT22;1858;48.716;9.648;2023-07-31T03:42:41;12.80;99.90
3684;DHT22;1858;48.716;9.648;2023-07-31T03:45:09;12.80;99.90
3684;DHT22;1858;48.716;9.648;2023-07-31T03:47:37;12.80;99.90
3684;DHT22;1858;48.716;9.648;2023-07-31T03:50:04;12.80;99.90
3684;DHT22;1858;48.716;9.648;2023-07-31T03:52:32;12.80;99.90
3684;DHT22;1858;48.716;9.648;2023-07-31T03:55:00;12.90;99.90
3684;DHT22;1858;48.716;9.648;2023-07-31T03:57:27;12.80;99.90
3684;DHT22;1858;48.716;9.648;2023-07-31T03:59:55;12.70;99.90
3684;DHT22;1858;48.716;9.648;2023-07-31T04:02:23;12.70;99.90
3684;DHT22;1858;48.716;9.648;2023-07-31T04:04:50;12.80;99.90
3684;DHT22;1858;48.716;9.648;2023-07-31T04:07:18;12.80;99.90
3684;DHT22;1858;48.716;9.648;2023-07-31T04:09:46;12.80;99.90
3684;DHT22;1858;48.716;9.648;2023-07-31T04:12:13;12.90;1.00
3684;DHT22;1858;48.716;9.648;2023-07-31T04:14:41;13.00;99.90
3684;DHT22;1858;48.716;9.648;2023-07-31T04:17:08;13.00;99.90
3684;DHT22;1858;48.716;9.648;2023-07-31T04:19:36;12.90;99.90
3684;DHT22;1858;48.716;9.648;2023-07-31T04:22:03;13.00;99.90
3684;DHT22;1858;48.716;9.648;2023-07-31T04:27:18;13.00;99.90
3684;DHT22;1858;48.716;9.648;2023-07-31T04:29:46;13.20;99.90
3684;DHT22;1858;48.716;9.648;2023-07-31T04:32:14;13.30;99.90
3684;DHT22;1858;48.716;9.648;2023-07-31T04:34:43;13.30;99.90
3684;DHT22;1858;48.716;9.648;2023-07-31T04:37:11;13.40;99.90
3684;DHT22;1858;48.716;9.648;2023-07-31T04:39:39;13.50;99.90
3684;DHT22;1858;48.716;9.648;2023-07-31T04:42:07;13.60;99.90
3684;DHT22;1858;48.716;9.648;2023-07-31T04:44:35;13.70;99.90
3684;DHT22;1858;48.716;9.648;2023-07-31T04:47:02;13.80;99.90
3684;DHT22;1858;48.716;9.648;2023-07-31T04:49:31;13.90;99.90
3684;DHT22;1858;48.716;9.648;2023-07-31T04:51:58;14.00;99.90
3684;DHT22;1858;48.716;9.648;2023-07-31T04:54:26;14.10;99.90
3684;DHT22;1858;48.716;9.648;2023-07-31T04:56:54;14.30;99.90
3684;DHT22;1858;48.716;9.648;2023-07-31T04:59:21;14.40;6.20
3684;DHT22;1858;48.716;9.648;2023-07-31T05:01:49;14.60;1.00
3684;DHT22;1858;48.716;9.648;2023-07-31T05:04:16;14.70;1.00
3684;DHT22;1858;48.716;9.648;2023-07-31T05:06:44;14.80;1.00
3684;DHT22;1858;48.716;9.648;2023-07-31T05:09:12;15.00;1.00
3684;DHT22;1858;48.716;9.648;2023-07-31T05:11:39;15.10;1.00
3684;DHT22;1858;48.716;9.648;2023-07-31T05:14:09;15.10;1.00
3684;DHT22;1858;48.716;9.648;2023-07-31T05:16:36;15.10;1.00
3684;DHT22;1858;48.716;9.648;2023-07-31T05:19:04;15.00;1.00
3684;DHT22;1858;48.716;9.648;2023-07-31T05:21:31;15.10;99.90
3684;DHT22;1858;48.716;9.648;2023-07-31T05:23:59;15.20;99.90
3684;DHT22;1858;48.716;9.648;2023-07-31T05:26:27;15.30;99.90
3684;DHT22;1858;48.716;9.648;2023-07-31T05:28:54;15.30;99.90
3684;DHT22;1858;48.716;9.648;2023-07-31T05:31:22;15.50;99.90
3684;DHT22;1858;48.716;9.648;2023-07-31T05:36:38;15.50;99.90
3684;DHT22;1858;48.716;9.648;2023-07-31T05:39:06;15.60;99.90
3684;DHT22;1858;48.716;9.648;2023-07-31T05:41:35;15.70;99.90
3684;DHT22;1858;48.716;9.648;2023-07-31T05:44:03;15.70;99.90
3684;DHT22;1858;48.716;9.648;2023-07-31T05:46:31;15.80;99.90
3684;DHT22;1858;48.716;9.648;2023-07-31T05:48:58;15.80;99.90
3684;DHT22;1858;48.716;9.648;2023-07-31T05:51:27;15.90;99.90
3684;DHT22;1858;48.716;9.648;2023-07-31T05:53:55;16.00;99.90
3684;DHT22;1858;48.716;9.648;2023-07-31T05:56:24;16.20;99.90
3684;DHT22;1858;48.716;9.648;2023-07-31T05:58:53;16.40;99.90
3684;DHT22;1858;48.716;9.648;2023-07-31T06:01:22;16.70;99.90
3684;DHT22;1858;48.716;9.648;2023-07-31T06:03:50;16.80;40.50
3684;DHT22;1858;48.716;9.648;2023-07-31T06:06:18;17.10;99.90
3684;DHT22;1858;48.716;9.648;2023-07-31T06:08:46;17.30;43.60
3684;DHT22;1858;48.716;9.648;2023-07-31T06:11:14;17.50;1.00
3684;DHT22;1858;48.716;9.648;2023-07-31T06:13:42;17.60;1.00
3684;DHT22;1858;48.716;9.648;2023-07-31T06:16:12;17.70;1.00
3684;DHT22;1858;48.716;9.648;2023-07-31T06:18:40;17.90;1.00
3684;DHT22;1858;48.716;9.648;2023-07-31T06:21:10;18.00;1.00
3684;DHT22;1858;48.716;9.648;2023-07-31T06:23:38;18.30;1.00
3684;DHT22;1858;48.716;9.648;2023-07-31T06:26:07;18.40;1.00
3684;DHT22;1858;48.716;9.648;2023-07-31T06:28:35;18.40;1.00
3684;DHT22;1858;48.716;9.648;2023-07-31T06:31:04;18.30;1.00
3684;DHT22;1858;48.716;9.648;2023-07-31T06:33:32;18.50;1.00
3684;DHT22;1858;48.716;9.648;2023-07-31T06:36:00;18.60;1.00
3684;DHT22;1858;48.716;9.648;2023-07-31T06:38:28;18.90;1.00
3684;DHT22;1858;48.716;9.648;2023-07-31T06:40:56;19.30;1.00
3684;DHT22;1858;48.716;9.648;2023-07-31T06:43:28;19.60;99.90
3684;DHT22;1858;48.716;9.648;2023-07-31T06:45:56;19.90;99.90
3684;DHT22;1858;48.716;9.648;2023-07-31T06:48:30;20.10;99.90
3684;DHT22;1858;48.716;9.648;2023-07-31T06:50:59;20.10;99.90
3684;DHT22;1858;48.716;9.648;2023-07-31T06:53:28;20.20;99.90
3684;DHT22;1858;48.716;9.648;2023-07-31T06:55:57;20.30;99.90
3684;DHT22;1858;48.716;9.648;2023-07-31T06:58:25;20.30;99.90
3684;DHT22;1858;48.716;9.648;2023-07-31T07:00:54;20.20;99.90
3684;DHT22;1858;48.716;9.648;2023-07-31T07:03:22;20.10;99.90
3684;DHT22;1858;48.716;9.648;2023-07-31T07:05:50;20.10;99.90
3684;DHT22;1858;48.716;9.648;2023-07-31T07:08:17;20.10;99.90
3684;DHT22;1858;48.716;9.648;2023-07-31T07:10:46;20.00;99.90
3684;DHT22;1858;48.716;9.648;2023-07-31T07:13:14;20.00;99.90
3684;DHT22;1858;48.716;9.648;2023-07-31T07:15:42;19.80;99.90
3684;DHT22;1858;48.716;9.648;2023-07-31T07:18:10;19.90;99.90
3684;DHT22;1858;48.716;9.648;2023-07-31T07:20:38;20.10;99.90
3684;DHT22;1858;48.716;9.648;2023-07-31T07:23:05;21.00;99.90
3684;DHT22;1858;48.716;9.648;2023-07-31T07:25:37;22.10;99.90
3684;DHT22;1858;48.716;9.648;2023-07-31T07:28:03;23.20;99.90
3684;DHT22;1858;48.716;9.648;2023-07-31T07:30:31;23.90;99.90
3684;DHT22;1858;48.716;9.648;2023-07-31T07:32:58;24.40;99.90
3684;DHT22;1858;48.716;9.648;2023-07-31T07:35:26;25.80;54.60
3684;DHT22;1858;48.716;9.648;2023-07-31T07:37:53;27.20;1.00
3684;DHT22;1858;48.716;9.648;2023-07-31T07:40:21;27.60;1.00
3684;DHT22;1858;48.716;9.648;2023-07-31T07:42:49;27.90;1.00
3684;DHT22;1858;48.716;9.648;2023-07-31T07:45:17;29.70;1.00
3684;DHT22;1858;48.716;9.648;2023-07-31T07:47:45;28.80;1.00
3684;DHT22;1858;48.716;9.648;2023-07-31T07:50:12;29.00;1.00
3684;DHT22;1858;48.716;9.648;2023-07-31T07:52:40;29.20;1.00
3684;DHT22;1858;48.716;9.648;2023-07-31T07:55:07;29.20;1.00
3684;DHT22;1858;48.716;9.648;2023-07-31T07:57:35;29.00;1.00
3684;DHT22;1858;48.716;9.648;2023-07-31T08:00:03;29.40;1.00
3684;DHT22;1858;48.716;9.648;2023-07-31T08:02:31;28.70;1.00
3684;DHT22;1858;48.716;9.648;2023-07-31T08:04:59;28.30;1.00
3684;DHT22;1858;48.716;9.648;2023-07-31T08:07:27;28.10;1.00
3684;DHT22;1858;48.716;9.648;2023-07-31T08:09:54;27.50;1.00
3684;DHT22;1858;48.716;9.648;2023-07-31T08:12:22;26.90;1.00
3684;DHT22;1858;48.716;9.648;2023-07-31T08:14:49;27.80;1.00
3684;DHT22;1858;48.716;9.648;2023-07-31T08:17:18;28.50;1.00
3684;DHT22;1858;48.716;9.648;2023-07-31T08:19:45;28.80;1.00
3684;DHT22;1858;48.716;9.648;2023-07-31T08:22:13;30.20;1.00
3684;DHT22;1858;48.716;9.648;2023-07-31T08:24:41;31.30;1.00
3684;DHT22;1858;48.716;9.648;2023-07-31T08:27:09;30.70;1.00
3684;DHT22;1858;48.716;9.648;2023-07-31T08:29:36;31.30;1.00
3684;DHT22;1858;48.716;9.648;2023-07-31T08:32:05;33.10;1.00
3684;DHT22;1858;48.716;9.648;2023-07-31T08:37:40;33.80;1.00
3684;DHT22;1858;48.716;9.648;2023-07-31T08:40:07;32.50;1.00
3684;DHT22;1858;48.716;9.648;2023-07-31T08:42:43;31.60;1.00
3684;DHT22;1858;48.716;9.648;2023-07-31T08:45:04;31.10;1.00
3684;DHT22;1858;48.716;9.648;2023-07-31T08:47:32;31.20;1.00
3684;DHT22;1858;48.716;9.648;2023-07-31T08:50:00;31.60;1.00
3684;DHT22;1858;48.716;9.648;2023-07-31T08:52:29;31.70;1.00
3684;DHT22;1858;48.716;9.648;2023-07-31T08:54:56;32.60;1.00
3684;DHT22;1858;48.716;9.648;2023-07-31T08:57:24;33.30;1.00
3684;DHT22;1858;48.716;9.648;2023-07-31T08:59:52;33.20;1.00
3684;DHT22;1858;48.716;9.648;2023-07-31T09:02:20;33.80;1.00
3684;DHT22;1858;48.716;9.648;2023-07-31T09:04:48;34.30;1.00
3684;DHT22;1858;48.716;9.648;2023-07-31T09:07:16;34.50;1.00
3684;DHT22;1858;48.716;9.648;2023-07-31T09:09:45;35.10;1.00
3684;DHT22;1858;48.716;9.648;2023-07-31T09:12:13;35.00;1.00
3684;DHT22;1858;48.716;9.648;2023-07-31T09:14:41;34.50;1.00
3684;DHT22;1858;48.716;9.648;2023-07-31T09:17:09;35.10;1.00
3684;DHT22;1858;48.716;9.648;2023-07-31T09:19:37;35.70;1.00
3684;DHT22;1858;48.716;9.648;2023-07-31T09:22:05;36.00;1.00
3684;DHT22;1858;48.716;9.648;2023-07-31T09:24:33;36.60;1.00
3684;DHT22;1858;48.716;9.648;2023-07-31T09:30:07;36.50;1.00
3684;DHT22;1858;48.716;9.648;2023-07-31T09:33:05;36.40;1.00
3684;DHT22;1858;48.716;9.648;2023-07-31T09:35:52;36.40;1.00
3684;DHT22;1858;48.716;9.648;2023-07-31T09:38:38;36.40;1.00
3684;DHT22;1858;48.716;9.648;2023-07-31T09:41:24;36.70;1.00
3684;DHT22;1858;48.716;9.648;2023-07-31T09:44:10;36.40;1.00
3684;DHT22;1858;48.716;9.648;2023-07-31T09:46:55;36.90;1.00
3684;DHT22;1858;48.716;9.648;2023-07-31T09:49:45;37.00;1.00
3684;DHT22;1858;48.716;9.648;2023-07-31T09:52:28;35.60;1.00
3684;DHT22;1858;48.716;9.648;2023-07-31T09:55:14;34.00;1.00
3684;DHT22;1858;48.716;9.648;2023-07-31T09:58:02;34.10;1.00
3684;DHT22;1858;48.716;9.648;2023-07-31T10:00:47;34.90;1.00
3684;DHT22;1858;48.716;9.648;2023-07-31T10:03:33;34.50;1.00
3684;DHT22;1858;48.716;9.648;2023-07-31T10:06:39;33.60;1.00
3684;DHT22;1858;48.716;9.648;2023-07-31T10:09:27;33.50;1.00
3684;DHT22;1858;48.716;9.648;2023-07-31T10:15:19;31.60;1.00
3684;DHT22;1858;48.716;9.648;2023-07-31T10:18:13;30.00;1.00
3684;DHT22;1858;48.716;9.648;2023-07-31T10:24:06;28.90;1.00
3684;DHT22;1858;48.716;9.648;2023-07-31T10:26:53;28.40;1.00
3684;DHT22;1858;48.716;9.648;2023-07-31T10:29:45;28.30;1.00
3684;DHT22;1858;48.716;9.648;2023-07-31T10:32:34;28.40;1.00
3684;DHT22;1858;48.716;9.648;2023-07-31T10:35:40;27.80;1.00
3684;DHT22;1858;48.716;9.648;2023-07-31T10:38:26;27.70;1.00
3684;DHT22;1858;48.716;9.648;2023-07-31T10:44:17;28.80;1.00
3684;DHT22;1858;48.716;9.648;2023-07-31T10:47:03;29.40;1.00
3684;DHT22;1858;48.716;9.648;2023-07-31T10:49:49;30.60;1.00
3684;DHT22;1858;48.716;9.648;2023-07-31T10:55:40;31.90;1.00
3684;DHT22;1858;48.716;9.648;2023-07-31T10:58:26;33.00;1.00
3684;DHT22;1858;48.716;9.648;2023-07-31T11:01:12;33.20;1.00
3684;DHT22;1858;48.716;9.648;2023-07-31T11:03:57;33.40;1.00
3684;DHT22;1858;48.716;9.648;2023-07-31T11:06:49;33.30;1.00
3684;DHT22;1858;48.716;9.648;2023-07-31T11:09:30;33.10;1.00
3684;DHT22;1858;48.716;9.648;2023-07-31T11:12:16;32.50;1.00
3684;DHT22;1858;48.716;9.648;2023-07-31T11:15:02;32.80;1.00
3684;DHT22;1858;48.716;9.648;2023-07-31T11:17:48;31.80;1.00
3684;DHT22;1858;48.716;9.648;2023-07-31T11:23:39;30.00;1.00
3684;DHT22;1858;48.716;9.648;2023-07-31T11:26:24;29.10;1.00
3684;DHT22;1858;48.716;9.648;2023-07-31T11:29:11;28.80;1.00
3684;DHT22;1858;48.716;9.648;2023-07-31T11:31:57;28.70;1.00
3684;DHT22;1858;48.716;9.648;2023-07-31T11:34:54;29.10;1.00
3684;DHT22;1858;48.716;9.648;2023-07-31T11:37:44;29.40;1.00
3684;DHT22;1858;48.716;9.648;2023-07-31T11:40:29;29.00;1.00
3684;DHT22;1858;48.716;9.648;2023-07-31T11:43:15;28.90;1.00
3684;DHT22;1858;48.716;9.648;2023-07-31T11:46:02;28.90;1.00
3684;DHT22;1858;48.716;9.648;2023-07-31T11:48:48;28.80;1.00
3684;DHT22;1858;48.716;9.648;2023-07-31T11:51:35;28.60;1.00
3684;DHT22;1858;48.716;9.648;2023-07-31T11:54:22;28.80;1.00
3684;DHT22;1858;48.716;9.648;2023-07-31T11:57:08;28.20;1.00
3684;DHT22;1858;48.716;9.648;2023-07-31T11:59:54;28.10;1.00
3684;DHT22;1858;48.716;9.648;2023-07-31T12:05:47;27.70;1.00
3684;DHT22;1858;48.716;9.648;2023-07-31T12:08:34;27.40;1.00
3684;DHT22;1858;48.716;9.648;2023-07-31T12:11:22;27.30;1.00
3684;DHT22;1858;48.716;9.648;2023-07-31T12:17:16;27.30;1.00
3684;DHT22;1858;48.716;9.648;2023-07-31T12:20:05;27.50;1.00
3684;DHT22;1858;48.716;9.648;2023-07-31T12:22:52;27.60;1.00
3684;DHT22;1858;48.716;9.648;2023-07-31T12:25:38;27.30;1.00
3684;DHT22;1858;48.716;9.648;2023-07-31T12:28:25;27.10;1.00
3684;DHT22;1858;48.716;9.648;2023-07-31T12:31:23;27.00;1.00
3684;DHT22;1858;48.716;9.648;2023-07-31T12:34:18;26.90;1.00
3684;DHT22;1858;48.716;9.648;2023-07-31T12:43:02;27.30;1.00
3684;DHT22;1858;48.716;9.648;2023-07-31T12:45:48;27.10;1.00
3684;DHT22;1858;48.716;9.648;2023-07-31T12:48:34;26.70;1.00
3684;DHT22;1858;48.716;9.648;2023-07-31T12:51:20;26.60;1.00
3684;DHT22;1858;48.716;9.648;2023-07-31T12:54:06;26.40;1.00
3684;DHT22;1858;48.716;9.648;2023-07-31T12:56:52;26.50;1.00
3684;DHT22;1858;48.716;9.648;2023-07-31T12:59:37;26.80;1.00
3684;DHT22;1858;48.716;9.648;2023-07-31T13:02:23;27.00;1.00
3684;DHT22;1858;48.716;9.648;2023-07-31T13:08:14;27.30;1.00
3684;DHT22;1858;48.716;9.648;2023-07-31T13:11:01;26.90;1.00
3684;DHT22;1858;48.716;9.648;2023-07-31T13:13:48;26.50;1.00
3684;DHT22;1858;48.716;9.648;2023-07-31T13:16:34;26.50;1.00
3684;DHT22;1858;48.716;9.648;2023-07-31T13:19:20;26.60;1.00
3684;DHT22;1858;48.716;9.648;2023-07-31T13:22:06;26.30;1.00
3684;DHT22;1858;48.716;9.648;2023-07-31T13:24:52;26.40;1.00
3684;DHT22;1858;48.716;9.648;2023-07-31T13:27:38;26.30;1.00
3684;DHT22;1858;48.716;9.648;2023-07-31T13:30:25;26.20;1.00
3684;DHT22;1858;48.716;9.648;2023-07-31T13:33:10;26.10;1.00
3684;DHT22;1858;48.716;9.648;2023-07-31T13:35:56;25.70;1.00
3684;DHT22;1858;48.716;9.648;2023-07-31T13:38:42;25.80;1.00
3684;DHT22;1858;48.716;9.648;2023-07-31T13:41:28;26.00;1.00
3684;DHT22;1858;48.716;9.648;2023-07-31T13:44:14;26.20;1.00
3684;DHT22;1858;48.716;9.648;2023-07-31T13:47:00;26.40;1.00
3684;DHT22;1858;48.716;9.648;2023-07-31T13:49:47;26.60;1.00
3684;DHT22;1858;48.716;9.648;2023-07-31T13:52:33;26.60;1.00
3684;DHT22;1858;48.716;9.648;2023-07-31T13:55:19;26.30;1.00
3684;DHT22;1858;48.716;9.648;2023-07-31T13:58:05;26.30;1.00
3684;DHT22;1858;48.716;9.648;2023-07-31T14:00:52;26.20;1.00
3684;DHT22;1858;48.716;9.648;2023-07-31T14:03:37;26.10;1.00
3684;DHT22;1858;48.716;9.648;2023-07-31T14:06:24;26.00;1.00
3684;DHT22;1858;48.716;9.648;2023-07-31T14:09:10;26.10;1.00
3684;DHT22;1858;48.716;9.648;2023-07-31T14:11:56;25.80;1.00
3684;DHT22;1858;48.716;9.648;2023-07-31T14:14:42;25.80;1.00
3684;DHT22;1858;48.716;9.648;2023-07-31T14:17:29;25.70;1.00
3684;DHT22;1858;48.716;9.648;2023-07-31T14:20:15;25.60;1.00
3684;DHT22;1858;48.716;9.648;2023-07-31T14:23:02;25.30;1.00
3684;DHT22;1858;48.716;9.648;2023-07-31T14:25:48;25.10;1.00
3684;DHT22;1858;48.716;9.648;2023-07-31T14:28:34;24.90;1.00
3684;DHT22;1858;48.716;9.648;2023-07-31T14:31:20;24.90;1.00
3684;DHT22;1858;48.716;9.648;2023-07-31T14:34:06;24.90;1.00
3684;DHT22;1858;48.716;9.648;2023-07-31T14:36:51;25.00;1.00
3684;DHT22;1858;48.716;9.648;2023-07-31T14:39:37;25.00;1.00
3684;DHT22;1858;48.716;9.648;2023-07-31T14:42:43;25.20;1.00
3684;DHT22;1858;48.716;9.648;2023-07-31T14:45:29;25.40;1.00
3684;DHT22;1858;48.716;9.648;2023-07-31T14:48:16;25.50;1.00
3684;DHT22;1858;48.716;9.648;2023-07-31T14:51:02;25.60;1.00
3684;DHT22;1858;48.716;9.648;2023-07-31T14:53:48;25.80;1.00
3684;DHT22;1858;48.716;9.648;2023-07-31T14:56:34;25.70;1.00
3684;DHT22;1858;48.716;9.648;2023-07-31T14:59:20;25.60;1.00
3684;DHT22;1858;48.716;9.648;2023-07-31T15:02:08;25.60;1.00
3684;DHT22;1858;48.716;9.648;2023-07-31T15:04:54;25.50;1.00
3684;DHT22;1858;48.716;9.648;2023-07-31T15:08:00;25.40;1.00
3684;DHT22;1858;48.716;9.648;2023-07-31T15:10:47;25.50;1.00
3684;DHT22;1858;48.716;9.648;2023-07-31T15:13:33;25.60;1.00
3684;DHT22;1858;48.716;9.648;2023-07-31T15:16:18;25.40;1.00
3684;DHT22;1858;48.716;9.648;2023-07-31T15:19:05;25.50;1.00
3684;DHT22;1858;48.716;9.648;2023-07-31T15:21:51;25.50;1.00
3684;DHT22;1858;48.716;9.648;2023-07-31T15:24:37;25.40;1.00
3684;DHT22;1858;48.716;9.648;2023-07-31T15:27:24;25.20;1.00
3684;DHT22;1858;48.716;9.648;2023-07-31T15:30:09;25.10;1.00
3684;DHT22;1858;48.716;9.648;2023-07-31T15:32:55;24.80;1.00
3684;DHT22;1858;48.716;9.648;2023-07-31T15:35:42;24.90;1.00
3684;DHT22;1858;48.716;9.648;2023-07-31T15:38:28;24.90;1.00
3684;DHT22;1858;48.716;9.648;2023-07-31T15:41:14;24.80;1.00
3684;DHT22;1858;48.716;9.648;2023-07-31T15:44:00;24.70;1.00
3684;DHT22;1858;48.716;9.648;2023-07-31T15:46:47;24.60;1.00
3684;DHT22;1858;48.716;9.648;2023-07-31T15:49:34;24.70;1.00
3684;DHT22;1858;48.716;9.648;2023-07-31T15:52:20;24.80;1.00
3684;DHT22;1858;48.716;9.648;2023-07-31T15:55:07;24.80;1.00
3684;DHT22;1858;48.716;9.648;2023-07-31T15:57:54;24.90;1.00
3684;DHT22;1858;48.716;9.648;2023-07-31T16:00:40;25.10;1.00
3684;DHT22;1858;48.716;9.648;2023-07-31T16:03:26;25.40;1.00
3684;DHT22;1858;48.716;9.648;2023-07-31T16:06:13;25.40;1.00
3684;DHT22;1858;48.716;9.648;2023-07-31T16:09:18;25.40;1.00
3684;DHT22;1858;48.716;9.648;2023-07-31T16:12:05;25.30;1.00
3684;DHT22;1858;48.716;9.648;2023-07-31T16:14:52;25.40;1.00
3684;DHT22;1858;48.716;9.648;2023-07-31T16:17:38;25.40;1.00
3684;DHT22;1858;48.716;9.648;2023-07-31T16:20:24;25.60;1.00
3684;DHT22;1858;48.716;9.648;2023-07-31T16:26:09;25.10;1.00
3684;DHT22;1858;48.716;9.648;2023-07-31T16:28:55;24.90;1.00
3684;DHT22;1858;48.716;9.648;2023-07-31T16:31:41;24.90;1.00
3684;DHT22;1858;48.716;9.648;2023-07-31T16:34:28;25.00;1.00
3684;DHT22;1858;48.716;9.648;2023-07-31T16:37:34;24.90;1.00
3684;DHT22;1858;48.716;9.648;2023-07-31T16:40:22;25.00;1.00
3684;DHT22;1858;48.716;9.648;2023-07-31T16:43:08;25.20;1.00
3684;DHT22;1858;48.716;9.648;2023-07-31T16:45:55;25.30;1.00
3684;DHT22;1858;48.716;9.648;2023-07-31T16:48:42;25.10;1.00
3684;DHT22;1858;48.716;9.648;2023-07-31T16:51:28;25.00;1.00
3684;DHT22;1858;48.716;9.648;2023-07-31T16:54:14;25.00;1.00
3684;DHT22;1858;48.716;9.648;2023-07-31T16:57:01;25.00;1.00
3684;DHT22;1858;48.716;9.648;2023-07-31T16:59:47;24.90;1.00
3684;DHT22;1858;48.716;9.648;2023-07-31T17:02:33;24.80;1.00
3684;DHT22;1858;48.716;9.648;2023-07-31T17:05:20;24.70;1.00
3684;DHT22;1858;48.716;9.648;2023-07-31T17:08:06;24.80;1.00
3684;DHT22;1858;48.716;9.648;2023-07-31T17:11:12;24.80;1.00
3684;DHT22;1858;48.716;9.648;2023-07-31T17:13:58;24.80;1.00
3684;DHT22;1858;48.716;9.648;2023-07-31T17:16:46;24.60;1.00
3684;DHT22;1858;48.716;9.648;2023-07-31T17:19:32;24.40;1.00
3684;DHT22;1858;48.716;9.648;2023-07-31T17:22:18;24.20;1.00
3684;DHT22;1858;48.716;9.648;2023-07-31T17:25:06;23.90;1.00
3684;DHT22;1858;48.716;9.648;2023-07-31T17:27:51;23.80;1.00
3684;DHT22;1858;48.716;9.648;2023-07-31T17:33:42;23.60;1.00
3684;DHT22;1858;48.716;9.648;2023-07-31T17:36:27;23.50;1.00
3684;DHT22;1858;48.716;9.648;2023-07-31T17:39:13;23.40;1.00
3684;DHT22;1858;48.716;9.648;2023-07-31T17:41:59;23.40;1.00
3684;DHT22;1858;48.716;9.648;2023-07-31T17:44:44;23.40;1.00
3684;DHT22;1858;48.716;9.648;2023-07-31T17:47:30;23.40;1.00
3684;DHT22;1858;48.716;9.648;2023-07-31T17:50:15;23.60;1.00
3684;DHT22;1858;48.716;9.648;2023-07-31T17:53:01;23.60;1.00
3684;DHT22;1858;48.716;9.648;2023-07-31T17:55:47;23.50;1.00
3684;DHT22;1858;48.716;9.648;2023-07-31T17:58:33;23.30;1.00
3684;DHT22;1858;48.716;9.648;2023-07-31T18:04:24;23.30;1.00
3684;DHT22;1858;48.716;9.648;2023-07-31T18:07:09;23.10;1.00
3684;DHT22;1858;48.716;9.648;2023-07-31T18:09:56;23.10;1.00